Time;durP1;ratioP1;P1;durP2;ratioP2;P2;SDS_P1;SDS_P2;PMS_P1;PMS_P2;Temp;Humidity;BMP_temperature;BMP_pressure;BME280_temperature;BME280_humidity;BME280_pressure;Samples;Min_cycle;Max_cycle;Signal;HPM_P1;HPM_P2
2022/09/03 00:00:56;;;;;;;;;;;;;;;12.61;100.00;98334.19;1712594;81;24537;-86
2022/09/03 00:03:30;;;;;;;;;;;;;;;12.61;100.00;98339.91;1713205;81;20165;-86
2022/09/03 00:06:00;;;;;;;;;;;;;;;12.70;100.00;98339.20;1710869;82;24858;-86
2022/09/03 00:08:29;;;;;;;;;;;;;;;12.72;100.00;98348.61;1718288;83;21973;-86
2022/09/03 00:11:00;;;;;;;;;;;;;;;12.64;100.00;98341.84;1683904;83;27289;-86
2022/09/03 00:13:28;;;;;;;;;;;;;;;12.57;100.00;98334.92;1698329;82;24523;-86
2022/09/03 00:15:56;;;;;;;;;;;;;;;12.63;100.00;98338.01;1715631;83;20258;-86
2022/09/03 00:18:24;;;;;;;;;;;;;;;12.59;100.00;98334.80;1709927;82;24737;-86
2022/09/03 00:20:52;;;;;;;;;;;;;;;12.55;100.00;98338.61;1717738;82;22175;-86
2022/09/03 00:23:23;;;;;;;;;;;;;;;12.60;100.00;98335.64;1717170;81;26159;-87
2022/09/03 00:25:57;;;;;;;;;;;;;;;12.60;100.00;98323.32;1716259;82;24525;-87
2022/09/03 00:28:25;;;;;;;;;;;;;;;12.59;100.00;98319.05;1718876;82;20310;-86
2022/09/03 00:30:55;;;;;;;;;;;;;;;12.56;100.00;98324.05;1715570;83;24739;-87
2022/09/03 00:33:23;;;;;;;;;;;;;;;12.61;100.00;98326.78;1715650;83;22754;-87
2022/09/03 00:35:52;;;;;;;;;;;;;;;12.63;100.00;98319.16;1714106;82;26788;-86
2022/09/03 00:38:19;;;;;;;;;;;;;;;12.61;100.00;98316.28;1696517;83;24505;-86
2022/09/03 00:40:47;;;;;;;;;;;;;;;12.64;100.00;98314.74;1712229;83;20315;-86
2022/09/03 00:43:33;;;;;;;;;;;;;;;12.48;100.00;98315.13;1711464;83;24781;-86
2022/09/03 00:46:08;;;;;;;;;;;;;;;12.48;100.00;98318.59;1684724;83;38221;-86
2022/09/03 00:48:48;;;;;;;;;;;;;;;12.47;100.00;98319.55;1710581;83;26751;-86
2022/09/03 00:51:28;;;;;;;;;;;;;;;12.47;100.00;98322.17;1709337;83;24438;-86
2022/09/03 00:54:01;;;;;;;;;;;;;;;12.42;100.00;98315.62;1711308;83;20311;-86
2022/09/03 00:56:48;;;;;;;;;;;;;;;12.45;100.00;98316.67;1710993;83;24767;-86
2022/09/03 00:59:16;;;;;;;;;;;;;;;12.39;100.00;98317.16;1714443;82;22018;-86
2022/09/03 01:01:47;;;;;;;;;;;;;;;12.36;100.00;98312.16;1711570;82;26929;-86
2022/09/03 01:04:18;;;;;;;;;;;;;;;12.38;100.00;98311.58;1707397;82;24501;-86
2022/09/03 01:06:54;;;;;;;;;;;;;;;12.39;100.00;98313.22;1709956;83;20252;-86
2022/09/03 01:09:20;;;;;;;;;;;;;;;12.39;100.00;98321.92;1709376;82;24956;-86
2022/09/03 01:11:48;;;;;;;;;;;;;;;12.36;100.00;98313.47;1709159;83;22105;-87
2022/09/03 01:14:26;;;;;;;;;;;;;;;12.29;100.00;98317.05;1711097;81;26231;-87
2022/09/03 01:16:54;;;;;;;;;;;;;;;12.12;100.00;98314.91;1714996;82;25215;-86
2022/09/03 01:19:27;;;;;;;;;;;;;;;12.11;100.00;98316.70;1713812;81;20320;-86
2022/09/03 01:21:58;;;;;;;;;;;;;;;11.95;100.00;98317.52;1709620;83;24757;-86
2022/09/03 01:24:42;;;;;;;;;;;;;;;11.80;100.00;98328.36;1705658;81;22261;-86
2022/09/03 01:27:13;;;;;;;;;;;;;;;11.90;100.00;98319.67;1713771;82;26089;-86
2022/09/03 01:29:43;;;;;;;;;;;;;;;11.86;100.00;98324.80;1712945;81;24602;-86
2022/09/03 01:32:14;;;;;;;;;;;;;;;11.89;100.00;98325.86;1710377;83;20158;-86
2022/09/03 01:34:44;;;;;;;;;;;;;;;12.00;100.00;98327.19;1691133;83;25611;-86
2022/09/03 01:37:12;;;;;;;;;;;;;;;11.92;100.00;98326.95;1708601;82;21968;-86
2022/09/03 01:39:40;;;;;;;;;;;;;;;11.94;100.00;98325.53;1686315;83;26666;-86
2022/09/03 01:42:16;;;;;;;;;;;;;;;11.98;100.00;98327.80;1673139;84;24552;-86
2022/09/03 01:45:00;;;;;;;;;;;;;;;12.03;100.00;98327.44;1679287;84;20275;-86
2022/09/03 01:47:31;;;;;;;;;;;;;;;11.92;100.00;98326.12;1680127;83;25425;-86
2022/09/03 01:50:02;;;;;;;;;;;;;;;11.97;100.00;98329.22;1676558;84;21977;-86
2022/09/03 01:52:36;;;;;;;;;;;;;;;11.92;100.00;98332.67;1672477;84;26151;-86
2022/09/03 01:55:07;;;;;;;;;;;;;;;11.73;100.00;98325.37;1675617;84;24416;-86
2022/09/03 01:57:46;;;;;;;;;;;;;;;11.58;100.00;98333.06;1676401;84;20482;-86
2022/09/03 02:00:14;;;;;;;;;;;;;;;11.48;100.00;98332.92;1679653;84;24811;-86
2022/09/03 02:02:42;;;;;;;;;;;;;;;11.47;100.00;98330.41;1676638;84;22112;-86
2022/09/03 02:05:13;;;;;;;;;;;;;;;11.43;100.00;98337.67;1675663;84;26726;-86
2022/09/03 02:07:41;;;;;;;;;;;;;;;11.32;100.00;98337.64;1675458;83;24592;-86
2022/09/03 02:10:11;;;;;;;;;;;;;;;11.30;100.00;98337.74;1677947;85;20244;-86
2022/09/03 02:12:40;;;;;;;;;;;;;;;11.33;100.00;98336.70;1676380;85;25760;-86
2022/09/03 02:15:08;;;;;;;;;;;;;;;11.41;100.00;98336.94;1678089;85;22028;-86
2022/09/03 02:17:34;;;;;;;;;;;;;;;11.50;100.00;98340.20;1679890;83;26047;-86
2022/09/03 02:20:05;;;;;;;;;;;;;;;11.61;100.00;98340.70;1678083;85;24503;-87
2022/09/03 02:22:32;;;;;;;;;;;;;;;11.60;100.00;98351.66;1679568;84;20181;-86
2022/09/03 02:24:59;;;;;;;;;;;;;;;11.50;100.00;98346.76;1678314;83;24751;-87
2022/09/03 02:27:25;;;;;;;;;;;;;;;11.40;100.00;98341.81;1679658;83;22834;-87
2022/09/03 02:29:52;;;;;;;;;;;;;;;11.43;100.00;98342.08;1681528;83;25724;-87
2022/09/03 02:32:18;;;;;;;;;;;;;;;11.37;100.00;98350.39;1678616;85;24476;-86
2022/09/03 02:34:44;;;;;;;;;;;;;;;11.23;100.00;98340.48;1680654;83;20494;-86
2022/09/03 02:37:14;;;;;;;;;;;;;;;11.21;100.00;98346.30;1678798;83;20696;-86
2022/09/03 02:39:40;;;;;;;;;;;;;;;11.14;100.00;98345.06;1679153;84;21999;-86
2022/09/03 02:42:08;;;;;;;;;;;;;;;11.11;100.00;98343.99;1683785;83;25980;-86
2022/09/03 02:44:36;;;;;;;;;;;;;;;11.19;100.00;98343.41;1684088;83;24784;-86
2022/09/03 02:47:03;;;;;;;;;;;;;;;11.17;100.00;98344.02;1679481;83;20231;-86
2022/09/03 02:49:29;;;;;;;;;;;;;;;11.04;100.00;98340.61;1680236;84;25586;-86
2022/09/03 02:52:00;;;;;;;;;;;;;;;10.92;100.00;98338.41;1683064;84;22172;-86
2022/09/03 02:54:27;;;;;;;;;;;;;;;10.77;100.00;98335.12;1682997;84;25497;-86
2022/09/03 02:56:53;;;;;;;;;;;;;;;10.65;100.00;98329.94;1681461;84;24528;-86
2022/09/03 02:59:21;;;;;;;;;;;;;;;10.52;100.00;98334.39;1682933;84;20572;-87
2022/09/03 03:01:55;;;;;;;;;;;;;;;10.45;100.00;98333.52;1682870;84;25588;-87
2022/09/03 03:04:21;;;;;;;;;;;;;;;10.48;100.00;98332.44;1683059;84;21818;-87
2022/09/03 03:06:49;;;;;;;;;;;;;;;10.47;100.00;98335.53;1684901;83;25962;-86
2022/09/03 03:09:18;;;;;;;7.10;3.05;;;;;;;10.43;100.00;98338.48;1677909;84;24618;-86
2022/09/03 03:11:45;;;;;;;4.70;2.70;;;;;;;10.43;100.00;98339.31;1674061;84;28165;-87
2022/09/03 03:14:12;;;;;;;5.72;2.80;;;;;;;10.44;100.00;98334.45;1677540;84;28103;-87
2022/09/03 03:16:39;;;;;;;5.42;3.12;;;;;;;10.42;100.00;98333.71;1677471;84;28055;-87
2022/09/03 03:19:05;;;;;;;;;;;;;;;10.48;100.00;98336.37;1681448;83;28094;-87
2022/09/03 03:21:35;;;;;;;;;;;;;;;10.52;100.00;98339.63;1684796;84;20250;-87
2022/09/03 03:24:02;;;;;;;;;;;;;;;10.68;100.00;98337.11;1680935;84;20188;-86
2022/09/03 03:26:28;;;;;;;;;;;;;;;10.82;100.00;98338.72;1683916;84;24860;-86
2022/09/03 03:28:59;;;;;;;;;;;;;;;10.77;100.00;98342.98;1683501;84;21983;-87
2022/09/03 03:31:31;;;;;;;;;;;;;;;10.88;100.00;98343.05;1680421;83;26750;-86
2022/09/03 03:33:59;;;;;;;;;;;;;;;10.83;100.00;98337.78;1683976;84;24438;-86
2022/09/03 03:36:26;;;;;;;;;;;;;;;10.78;100.00;98326.81;1683675;83;20175;-86
2022/09/03 03:38:53;;;;;;;;;;;;;;;10.75;100.00;98334.39;1684570;83;24826;-86
2022/09/03 03:41:23;;;;;;;;;;;;;;;10.72;100.00;98335.09;1726629;83;22043;-87
2022/09/03 03:43:53;;;;;;;;;;;;;;;10.87;100.00;98338.75;1718680;83;26083;-87
2022/09/03 03:46:21;;;;;;;;;;;;;;;10.95;100.00;98341.30;1716943;82;24427;-86
2022/09/03 03:48:47;;;;;;;;;;;;;;;10.87;100.00;98337.91;1718082;82;20307;-87
2022/09/03 03:51:14;;;;;;;;;;;;;;;10.95;100.00;98341.30;1720836;82;24812;-87
2022/09/03 03:53:40;;;;;;;;;;;;;;;10.99;100.00;98344.88;1723256;82;21984;-87
2022/09/03 03:56:08;;;;;;;;;;;;;;;10.98;100.00;98344.52;1690807;83;21044;-86
2022/09/03 03:58:36;;;;;;;;;;;;;;;11.05;100.00;98344.91;1721263;81;24497;-86
2022/09/03 04:01:06;;;;;;;;;;;;;;;11.08;100.00;98347.29;1708729;82;20268;-86
2022/09/03 04:03:33;;;;;;;;;;;;;;;11.15;100.00;98350.67;1716743;81;24759;-86
2022/09/03 04:05:59;;;;;;;;;;;;;;;11.24;100.00;98353.91;1718142;81;22113;-86
2022/09/03 04:08:26;;;;;;;;;;;;;;;11.32;100.00;98357.29;1716791;83;25933;-85
2022/09/03 04:10:52;;;;;;;;;;;;;;;11.18;100.00;98360.91;1719665;82;23833;-85
2022/09/03 04:13:18;;;;;;;;;;;;;;;11.00;100.00;98360.13;1717155;82;20530;-86
2022/09/03 04:15:44;;;;;;;;;;;;;;;10.82;100.00;98360.97;1723235;82;20288;-85
2022/09/03 04:18:10;;;;;;;;;;;;;;;10.61;100.00;98354.66;1726610;82;22027;-86
2022/09/03 04:20:37;;;;;;;;;;;;;;;10.55;100.00;98357.23;1718279;83;26033;-86
2022/09/03 04:23:04;;;;;;;;;;;;;;;10.46;100.00;98364.44;1714898;82;24554;-86
2022/09/03 04:25:33;;;;;;;;;;;;;;;10.39;100.00;98357.95;1716677;82;20214;-86
2022/09/03 04:27:59;;;;;;;;;;;;;;;10.34;100.00;98360.06;1714704;82;25345;-86
2022/09/03 04:30:26;;;;;;;;;;;;;;;10.25;100.00;98356.80;1724450;82;22196;-86
2022/09/03 04:32:53;;;;;;;;;;;;;;;10.19;100.00;98363.28;1723845;82;26003;-86
2022/09/03 04:35:24;;;;;;;;;;;;;;;10.18;100.00;98366.00;1722184;83;24508;-86
2022/09/03 04:37:50;;;;;;;;;;;;;;;10.17;100.00;98367.77;1722382;82;20406;-86
2022/09/03 04:40:17;;;;;;;;;;;;;;;10.34;100.00;98363.52;1711027;83;24608;-86
2022/09/03 04:42:43;;;;;;;;;;;;;;;10.58;100.00;98362.74;1709120;82;21984;-86
2022/09/03 04:45:10;;;;;;;;;;;;;;;10.77;100.00;98364.39;1711227;83;21138;-86
2022/09/03 04:47:36;;;;;;;;;;;;;;;10.93;100.00;98372.81;1715797;83;24521;-87
2022/09/03 04:50:05;;;;;;;;;;;;;;;11.04;100.00;98368.11;1680243;83;20240;-86
2022/09/03 04:52:32;;;;;;;;;;;;;;;11.13;100.00;98373.51;1679589;83;24767;-86
2022/09/03 04:55:01;;;;;;;;;;;;;;;11.12;100.00;98368.41;1656268;85;22094;-86
2022/09/03 04:57:36;;;;;;;;;;;;;;;11.16;100.00;98365.91;1679277;83;26049;-86
2022/09/03 05:00:06;;;;;;;;;;;;;;;11.26;100.00;98370.84;1705524;83;25374;-86
2022/09/03 05:02:32;;;;;;;;;;;;;;;11.25;100.00;98375.70;1709732;83;20154;-87
2022/09/03 05:05:00;;;;;;;;;;;;;;;11.36;100.00;98384.92;1711396;82;21939;-86
2022/09/03 05:07:37;;;;;;;;;;;;;;;11.38;100.00;98378.27;1706909;82;22031;-87
2022/09/03 05:09:54;;;;;;;;;;;;;;;11.27;100.00;98370.73;1707106;82;26003;-87
2022/09/03 05:12:21;;;;;;;;;;;;;;;11.16;100.00;98380.32;1713073;83;24454;-87
2022/09/03 05:14:49;;;;;;;;;;;;;;;11.08;100.00;98369.08;1708132;83;20469;-87
2022/09/03 05:17:17;;;;;;;;;;;;;;;11.05;100.00;98370.63;1694432;83;20852;-87
2022/09/03 05:19:43;;;;;;;;;;;;;;;11.03;100.00;98372.98;1706075;83;22215;-87
2022/09/03 05:22:12;;;;;;;;;;;;;;;11.03;100.00;98376.44;1710076;82;26142;-87
2022/09/03 05:24:38;;;;;;;;;;;;;;;11.05;100.00;98375.03;1717245;82;24528;-86
2022/09/03 05:27:04;;;;;;;;;;;;;;;11.08;100.00;98372.17;1703560;83;20165;-87
2022/09/03 05:29:30;;;;;;;;;;;;;;;11.11;100.00;98377.20;1698583;83;20292;-86
2022/09/03 05:31:57;;;;;;;;;;;;;;;11.09;100.00;98377.30;1676818;83;20835;-86
2022/09/03 05:34:23;;;;;;;;;;;;;;;11.07;100.00;98375.29;1689979;83;26096;-86
2022/09/03 05:36:49;;;;;;;;;;;;;;;11.07;100.00;98379.22;1708325;83;20261;-86
2022/09/03 05:39:17;;;;;;;;;;;;;;;11.07;100.00;98377.07;1712835;83;20279;-86
2022/09/03 05:41:43;;;;;;;;;;;;;;;11.05;100.00;98378.48;1706455;83;24714;-86
2022/09/03 05:44:09;;;;;;;;;;;;;;;11.06;100.00;98378.85;1698805;83;22028;-86
2022/09/03 05:46:37;;;;;;;;;;;;;;;11.09;100.00;98378.61;1696840;83;25991;-86
2022/09/03 05:49:04;;;;;;;;;;;;;;;11.12;100.00;98379.72;1699929;83;24477;-86
2022/09/03 05:51:31;;;;;;;;;;;;;;;11.18;100.00;98378.44;1701404;83;20197;-86
2022/09/03 05:53:57;;;;;;;;;;;;;;;11.24;100.00;98373.56;1699487;83;24807;-85
2022/09/03 05:56:25;;;;;;;;;;;;;;;11.29;100.00;98370.63;1702320;83;22267;-86
2022/09/03 05:58:53;;;;;;;;;;;;;;;11.31;100.00;98370.86;1704727;83;25992;-86
2022/09/03 06:01:20;;;;;;;;;;;;;;;11.35;100.00;98375.89;1702121;83;24615;-86
2022/09/03 06:03:47;;;;;;;;;;;;;;;11.38;100.00;98375.65;1699253;83;20246;-85
2022/09/03 06:06:15;;;;;;;;;;;;;;;11.43;100.00;98377.45;1693621;83;25502;-86
2022/09/03 06:08:43;;;;;;;;;;;;;;;11.47;100.00;98374.95;1698297;83;22130;-87
2022/09/03 06:11:10;;;;;;;;;;;;;;;11.53;100.00;98376.66;1704259;83;26194;-86
2022/09/03 06:13:36;;;;;;;;;;;;;;;11.58;100.00;98376.30;1700427;83;24440;-86
2022/09/03 06:16:06;;;;;;;;;;;;;;;11.66;100.00;98366.93;1702593;83;34316;-86
2022/09/03 06:18:32;;;;;;;;;;;;;;;11.74;100.00;98376.85;1694028;82;24811;-86
2022/09/03 06:21:00;;;;;;;;;;;;;;;11.78;100.00;98375.70;1706971;82;22065;-87
2022/09/03 06:23:27;;;;;;;;;;;;;;;11.81;100.00;98375.45;1699730;82;25951;-86
2022/09/03 06:26:01;;;;;;;;;;;;;;;11.88;100.00;98375.35;1702851;83;24500;-86
2022/09/03 06:28:27;;;;;;;;;;;;;;;11.97;100.00;98377.73;1703655;83;20213;-86
2022/09/03 06:30:55;;;;;;;;;;;;;;;12.05;100.00;98384.56;1703119;83;20786;-85
2022/09/03 06:33:22;;;;;;;;;;;;;;;12.13;100.00;98388.25;1700338;83;22152;-86
2022/09/03 06:35:50;;;;;;;;;;;;;;;12.20;100.00;98383.84;1702700;83;26289;-85
2022/09/03 06:38:17;;;;;;;;;;;;;;;12.31;100.00;98379.92;1700613;82;25253;-85
2022/09/03 06:40:45;;;;;;;;;;;;;;;12.38;100.00;98385.86;1694604;83;20597;-85
2022/09/03 06:43:15;;;;;;;;;;;;;;;12.47;100.00;98386.95;1694435;84;24233;-85
2022/09/03 06:45:41;;;;;;;;;;;;;;;12.54;100.00;98390.78;1692280;83;21994;-85
2022/09/03 06:48:06;;;;;;;;;;;;;;;12.60;100.00;98389.46;1696767;83;21197;-85
2022/09/03 06:50:32;;;;;;;;;;;;;;;12.66;100.00;98388.47;1694067;83;20281;-85
2022/09/03 06:52:58;;;;;;;;;;;;;;;12.74;100.00;98386.56;1688835;83;20860;-85
2022/09/03 06:55:24;;;;;;;;;;;;;;;12.81;100.00;98384.66;1694957;84;24797;-85
2022/09/03 06:57:53;;;;;;;;;;;;;;;12.90;100.00;98381.76;1692513;84;20245;-85
2022/09/03 07:00:26;;;;;;;;;;;;;;;13.00;100.00;98376.13;1691620;83;26277;-85
2022/09/03 07:02:58;;;;;;;;;;;;;;;13.10;100.00;98371.78;1655868;85;24320;-85
2022/09/03 07:05:27;;;;;;;;;;;;;;;13.20;100.00;98371.93;1656922;85;20236;-85
2022/09/03 07:07:53;;;;;;;;;;;;;;;13.29;100.00;98375.11;1690884;83;25428;-86
2022/09/03 07:10:21;;;;;;;;;;;;;;;13.33;100.00;98376.05;1693449;84;22003;-86
2022/09/03 07:12:49;;;;;;;;;;;;;;;13.41;100.00;98374.11;1690811;84;26046;-85
2022/09/03 07:15:16;;;;;;;;;;;;;;;13.51;100.00;98378.96;1695598;83;25105;-85
2022/09/03 07:17:46;;;;;;;;;;;;;;;13.61;100.00;98373.77;1697104;84;20193;-85
2022/09/03 07:20:16;;;;;;;;;;;;;;;13.70;100.00;98373.83;1696436;83;24871;-86
2022/09/03 07:22:39;;;;;;;;;;;;;;;13.78;100.00;98375.83;1694897;82;22074;-86
2022/09/03 07:25:05;;;;;;;;;;;;;;;13.82;100.00;98372.81;1696416;82;21853;-86
2022/09/03 07:27:33;;;;;;;;;;;;;;;13.90;100.00;98379.23;1692070;82;24576;-85
2022/09/03 07:29:59;;;;;;;;;;;;;;;13.96;100.00;98378.23;1695868;82;20318;-86
2022/09/03 07:32:28;;;;;;;;;;;;;;;14.05;100.00;98377.93;1690842;83;25546;-86
2022/09/03 07:34:56;;;;;;;;;;;;;;;14.11;100.00;98378.73;1698971;82;21935;-86
2022/09/03 07:37:22;;;;;;;;;;;;;;;14.20;100.00;98373.98;1696775;82;26792;-86
2022/09/03 07:39:48;;;;;;;;;;;;;;;14.33;100.00;98375.09;1676020;84;20283;-85
2022/09/03 07:42:16;;;;;;;;;;;;;;;14.43;100.00;98379.95;1709868;83;20263;-86
2022/09/03 07:44:42;;;;;;;;;;;;;;;14.47;100.00;98380.02;1714504;82;24849;-86
2022/09/03 07:47:09;;;;;;;;;;;;;;;14.50;100.00;98378.45;1721072;82;20848;-85
2022/09/03 07:49:36;;;;;;;;;;;;;;;14.54;100.00;98385.95;1718422;82;26748;-85
2022/09/03 07:52:02;;;;;;;;;;;;;;;14.61;100.00;98392.37;1717688;82;24419;-85
2022/09/03 07:54:34;;;;;;;;;;;;;;;14.63;100.00;98389.09;1720626;82;20865;-88
2022/09/03 07:57:00;;;;;;;;;;;;;;;14.71;100.00;98387.61;1723216;82;24867;-85
2022/09/03 07:59:26;;;;;;;;;;;;;;;14.74;100.00;98390.79;1714147;82;22047;-85
2022/09/03 08:01:52;;;;;;;;;;;;;;;14.78;100.00;98386.11;1719467;82;26820;-85
2022/09/03 08:04:18;;;;;;;;;;;;;;;14.85;100.00;98380.15;1723875;82;20319;-85
2022/09/03 08:06:44;;;;;;;;;;;;;;;14.92;100.00;98375.17;1719139;82;20219;-85
2022/09/03 08:09:12;;;;;;;;;;;;;;;14.97;100.00;98383.50;1716476;81;24768;-85
2022/09/03 08:11:40;;;;;;;;;;;;;;;15.01;100.00;98380.45;1720571;83;21990;-86
2022/09/03 08:14:07;;;;;;;;;;;;;;;15.08;100.00;98378.95;1719314;83;26146;-85
2022/09/03 08:16:38;;;;;;;;;;;;;;;15.15;100.00;98375.29;1724539;82;25454;-85
2022/09/03 08:19:04;;;;;;;;;;;;;;;15.23;100.00;98383.33;1719190;82;20467;-86
2022/09/03 08:21:30;;;;;;;;;;;;;;;15.24;100.00;98389.44;1718563;82;24375;-85
2022/09/03 08:24:04;;;;;;;;;;;;;;;15.26;100.00;98384.39;1725184;81;20303;-86
2022/09/03 08:26:32;;;;;;;;;;;;;;;15.33;100.00;98380.21;1721455;81;26858;-86
2022/09/03 08:28:58;;;;;;;;;;;;;;;15.40;100.00;98385.77;1716200;83;24499;-85
2022/09/03 08:31:26;;;;;;;;;;;;;;;15.46;100.00;98387.86;1721214;82;20201;-85
2022/09/03 08:34:05;;;;;;;;;;;;;;;15.49;100.00;98390.23;1720070;82;25533;-86
2022/09/03 08:36:32;;;;;;;;;;;;;;;15.49;100.00;98388.41;1722376;82;21928;-85
2022/09/03 08:39:03;;;;;;;;;;;;;;;15.49;100.00;98387.08;1722401;83;26021;-85
2022/09/03 08:41:29;;;;;;;;;;;;;;;15.54;100.00;98395.95;1714181;82;24436;-85
2022/09/03 08:43:57;;;;;;;;;;;;;;;15.58;100.00;98395.18;1704837;83;20652;-85
2022/09/03 08:46:28;;;;;;;;;;;;;;;15.62;100.00;98397.88;1710232;83;25513;-85
2022/09/03 08:48:54;;;;;;;;;;;;;;;15.66;100.00;98394.81;1706930;82;21974;-86
2022/09/03 08:51:29;;;;;;;;;;;;;;;15.70;100.00;98396.71;1713704;83;20988;-86
2022/09/03 08:53:57;;;;;;;;;;;;;;;15.74;100.00;98392.81;1703420;83;24679;-86
2022/09/03 08:56:29;;;;;;;;;;;;;;;15.78;100.00;98390.23;1701417;82;20284;-85
2022/09/03 08:58:54;;;;;;;;;;;;;;;15.85;100.00;98395.30;1711676;82;24922;-86
2022/09/03 09:01:39;;;;;;;;;;;;;;;15.87;100.00;98383.61;1703383;83;20776;-86
2022/09/03 09:04:10;;;;;;;;;;;;;;;15.91;100.00;98385.50;1672548;83;26058;-86
2022/09/03 09:06:52;;;;;;;;;;;;;;;15.91;100.00;98390.78;1679459;84;24437;-86
2022/09/03 09:09:30;;;;;;;;;;;;;;;15.93;100.00;98382.73;1633419;86;20348;-86
2022/09/03 09:12:02;;;;;;;;;;;;;;;15.90;100.00;98383.83;1644323;86;24749;-85
2022/09/03 09:14:46;;;;;;;;;;;;;;;15.97;100.00;98383.62;1716617;82;22122;-87
2022/09/03 09:17:31;;;;;;;;;;;;;;;16.02;100.00;98385.34;1702239;83;26825;-86
2022/09/03 09:20:16;;;;;;;;;;;;;;;16.07;100.00;98386.23;1707790;83;24496;-86
2022/09/03 09:22:50;;;;;;;;;;;;;;;16.13;100.00;98385.66;1693130;83;20216;-86
2022/09/03 09:25:21;;;;;;;;;;;;;;;16.09;100.00;98389.57;1683350;84;25573;-87
2022/09/03 09:27:52;;;;;;;;;;;;;;;16.08;100.00;98395.34;1717153;83;21970;-87
2022/09/03 09:30:18;;;;;;;;;;;;;;;16.11;100.00;98394.20;1708255;83;26093;-87
2022/09/03 09:32:46;;;;;;;;;;;;;;;16.16;100.00;98395.44;1716464;82;24666;-86
2022/09/03 09:35:16;;;;;;;;;;;;;;;16.18;100.00;98397.45;1715098;83;20238;-86
2022/09/03 09:37:49;;;;;;;;;;;;;;;16.24;100.00;98396.89;1709761;83;24802;-86
2022/09/03 09:40:24;;;;;;;;;;;;;;;16.27;100.00;98399.23;1707960;83;22690;-87
2022/09/03 09:42:50;;;;;;;;;;;;;;;16.36;100.00;98396.72;1718569;82;25848;-86
2022/09/03 09:45:16;;;;;;;;;;;;;;;16.36;100.00;98394.08;1720591;81;24476;-87
2022/09/03 09:47:44;;;;;;;;;;;;;;;16.39;100.00;98393.29;1716367;81;20260;-86
2022/09/03 09:50:22;;;;;;;;;;;;;;;16.45;100.00;98386.59;1716108;81;24775;-86
2022/09/03 09:52:49;;;;;;;;;;;;;;;16.49;100.00;98393.25;1712862;81;22018;-87
2022/09/03 09:55:18;;;;;;;;;;;;;;;16.48;100.00;98393.73;1705622;82;26183;-86
2022/09/03 09:57:51;;;;;;;;;;;;;;;16.58;100.00;98395.84;1718851;83;24478;-86
2022/09/03 10:00:19;;;;;;;4.85;1.60;;;;;;;16.66;100.00;98395.16;1710945;82;20198;-86
2022/09/03 10:02:48;;;;;;;3.15;2.10;;;;;;;16.70;100.00;98396.52;1710821;83;28129;-87
2022/09/03 10:05:25;;;;;;;;;;;;;;;16.78;100.00;98387.88;1716307;82;28105;-87
2022/09/03 10:07:58;;;;;;;;;;;;;;;16.83;100.00;98386.45;1720202;82;26706;-87
2022/09/03 10:10:25;;;;;;;;;;;;;;;16.85;100.00;98381.03;1724333;82;24876;-87
2022/09/03 10:13:01;;;;;;;;;;;;;;;16.83;100.00;98389.09;1710847;83;20170;-87
2022/09/03 10:15:38;;;;;;;;;;;;;;;16.88;100.00;98392.13;1713880;82;24915;-87
2022/09/03 10:18:09;;;;;;;;;;;;;;;16.94;100.00;98391.53;1683258;83;20475;-87
2022/09/03 10:20:39;;;;;;;;;;;;;;;17.03;100.00;98395.09;1709994;82;26056;-87
2022/09/03 10:23:10;;;;;;;;;;;;;;;17.14;100.00;98396.20;1714593;81;24415;-87
2022/09/03 10:25:41;;;;;;;;;;;;;;;17.19;100.00;98389.97;1722990;82;20213;-87
2022/09/03 10:28:08;;;;;;;;;;;;;;;17.24;100.00;98385.06;1724754;81;24857;-87
2022/09/03 10:30:45;;;;;;;;;;;;;;;17.25;100.00;98389.38;1724088;81;22110;-87
2022/09/03 10:33:09;;;;;;;;;;;;;;;17.26;100.00;98380.95;1717611;82;25997;-87
2022/09/03 10:35:40;;;;;;;;;;;;;;;17.26;100.00;98382.28;1721694;82;20186;-88
2022/09/03 10:38:28;;;;;;;;;;;;;;;17.31;100.00;98383.98;1683379;81;20474;-87
2022/09/03 10:40:56;;;;;;;;;;;;;;;17.32;100.00;98381.68;1688447;83;24931;-87
2022/09/03 10:43:30;;;;;;;;;;;;;;;17.34;100.00;98376.59;1697465;83;22092;-87
2022/09/03 10:46:13;;;;;;;;;;;;;;;17.39;100.00;98372.17;1685609;83;25970;-87
2022/09/03 10:48:41;;;;;;;;;;;;;;;17.47;100.00;98377.52;1680169;83;24475;-88
2022/09/03 10:51:14;;;;;;;;;;;;;;;17.49;100.00;98379.53;1683552;83;20227;-87
2022/09/03 10:53:51;;;;;;;;;;;;;;;17.50;100.00;98378.06;1683303;83;24831;-87
2022/09/03 10:56:23;;;;;;;;;;;;;;;17.51;100.00;98373.61;1680349;83;22744;-87
2022/09/03 10:58:53;;;;;;;;;;;;;;;17.45;100.00;98370.24;1680917;83;26736;-87
2022/09/03 11:01:38;;;;;;;;;;;;;;;17.50;100.00;98364.84;1683113;83;25383;-87
2022/09/03 11:04:13;;;;;;;;;;;;;;;17.58;100.00;98365.38;1682370;83;20212;-87
2022/09/03 11:06:40;;;;;;;;;;;;;;;17.64;100.00;98362.16;1684765;83;24747;-87
2022/09/03 11:09:10;;;;;;;;;;;;;;;17.67;100.00;98365.00;1680784;83;22003;-87
2022/09/03 11:11:37;;;;;;;;;;;;;;;17.70;100.00;98361.55;1673928;83;26096;-87
2022/09/03 11:14:05;;;;;;;;;;;;;;;17.74;100.00;98355.44;1683244;84;24507;-87
2022/09/03 11:16:33;;;;;;;;;;;;;;;17.79;100.00;98360.61;1684737;83;20292;-87
2022/09/03 11:19:07;;;;;;;;;;;;;;;17.96;100.00;98363.72;1684067;83;24832;-87
2022/09/03 11:21:34;;;;;;;;;;;;;;;18.09;100.00;98352.72;1678811;83;21537;-87
2022/09/03 11:24:05;;;;;;;;;;;;;;;18.28;100.00;98355.63;1687144;83;25939;-87
2022/09/03 11:26:35;;;;;;;;;;;;;;;18.34;100.00;98349.70;1684318;85;23712;-87
2022/09/03 11:29:07;;;;;;;;;;;;;;;18.32;100.00;98345.08;1656308;85;20213;-87
2022/09/03 11:31:56;;;;;;;;;;;;;;;18.35;100.00;98346.91;1674976;85;24794;-87
2022/09/03 11:34:26;;;;;;;;;;;;;;;18.40;100.00;98341.13;1654897;85;22100;-87
2022/09/03 11:36:55;;;;;;;;;;;;;;;18.39;100.00;98342.94;1647758;85;26709;-88
2022/09/03 11:39:33;;;;;;;;;;;;;;;18.35;100.00;98343.42;1635505;86;24418;-87
2022/09/03 11:42:05;;;;;;;;;;;;;;;18.33;100.00;98342.24;1639794;86;20331;-87
2022/09/03 11:44:45;;;;;;;;;;;;;;;18.33;100.00;98340.09;1639362;86;25507;-87
2022/09/03 11:47:15;;;;;;;;;;;;;;;18.38;100.00;98340.47;1641837;86;22116;-88
2022/09/03 11:49:52;;;;;;;;;;;;;;;18.42;100.00;98334.34;1640144;87;26801;-87
2022/09/03 11:52:26;;;;;;;;;;;;;;;18.47;100.00;98338.67;1620735;87;24472;-87
2022/09/03 11:54:54;;;;;;;;;;;;;;;18.51;100.00;98330.73;1615896;87;20233;-87
2022/09/03 11:57:25;;;;;;;;;;;;;;;18.56;100.00;98337.74;1663225;85;25378;-87
2022/09/03 12:00:10;;;;;;;;;;;;;;;18.61;100.00;98341.58;1612386;87;22910;-89
2022/09/03 12:02:38;;;;;;;;;;;;;;;18.67;100.00;98340.11;1633436;86;26022;-87
2022/09/03 12:05:09;;;;;;;;;;;;;;;18.71;100.00;98338.30;1641115;84;25198;-87
2022/09/03 12:07:42;;;;;;;;;;;;;;;18.77;100.00;98342.13;1646921;85;20294;-87
2022/09/03 12:10:11;;;;;;;;;;;;;;;18.81;100.00;98340.84;1647853;85;24813;-87
2022/09/03 12:12:56;;;;;;;;;;;;;;;18.78;100.00;98340.64;1665034;84;22109;-87
2022/09/03 12:15:35;;;;;;;;;;;;;;;18.80;100.00;98340.00;1597788;87;21612;-87
2022/09/03 12:18:18;;;;;;;;;;;;;;;18.82;100.00;98338.49;1640843;87;25326;-87
2022/09/03 12:20:46;;;;;;;;;;;;;;;18.82;100.00;98335.84;1614334;86;20349;-87
2022/09/03 12:23:17;;;;;;;;;;;;;;;18.89;100.00;98341.34;1643174;87;24949;-87
2022/09/03 12:25:51;;;;;;;;;;;;;;;18.96;100.00;98339.70;1525973;92;22024;-87
2022/09/03 12:28:20;;;;;;;;;;;;;;;18.92;100.00;98333.91;1622324;85;26090;-87
2022/09/03 12:30:47;;;;;;;;;;;;;;;18.96;100.00;98330.42;1648428;85;24436;-88
2022/09/03 12:33:17;;;;;;;;;;;;;;;18.99;100.00;98328.76;1647669;85;20731;-87
2022/09/03 12:35:43;;;;;;;;;;;;;;;19.02;100.00;98327.13;1644439;86;24773;-87
2022/09/03 12:38:11;;;;;;;;;;;;;;;19.04;100.00;98326.45;1644848;86;21982;-87
2022/09/03 12:40:42;;;;;;;;;;;;;;;19.11;100.00;98324.81;1643343;85;26844;-87
2022/09/03 12:43:13;;;;;;;;;;;;;;;19.14;100.00;98312.56;1639507;86;24547;-86
2022/09/03 12:45:44;;;;;;;;;;;;;;;19.23;100.00;98318.20;1642797;86;20408;-86
2022/09/03 12:48:15;;;;;;;;;;;;;;;19.20;100.00;98315.36;1640147;85;24875;-86